Time;durP1;ratioP1;P1;durP2;ratioP2;P2;SDS_P1;SDS_P2;PMS_P1;PMS_P2;Temp;Humidity;BMP_temperature;BMP_pressure;BME280_temperature;BME280_humidity;BME280_pressure;Samples;Min_cycle;Max_cycle;Signal;HPM_P1;HPM_P2
2021/07/04 00:00:30;;;;;;;20.52;14.57;;;;;;;16.31;100.00;97148.25;4982002;28;20088;-79
2021/07/04 00:02:57;;;;;;;21.90;15.70;;;;;;;16.31;100.00;97158.19;4990632;28;20120;-79
2021/07/04 00:05:26;;;;;;;33.92;16.48;;;;;;;16.31;100.00;97150.09;4980468;28;20033;-79
2021/07/04 00:07:52;;;;;;;26.88;16.45;;;;;;;16.36;100.00;97151.41;4996769;28;20033;-79
2021/07/04 00:10:23;;;;;;;23.45;16.98;;;;;;;16.34;100.00;97139.03;4996998;28;20116;-79
2021/07/04 00:12:48;;;;;;;23.48;16.33;;;;;;;16.32;100.00;97139.19;4977540;28;20124;-79
2021/07/04 00:15:15;;;;;;;24.50;16.52;;;;;;;16.26;100.00;97127.09;4996885;28;20509;-79
2021/07/04 00:17:41;;;;;;;26.13;15.93;;;;;;;16.26;100.00;97127.09;4980590;28;20079;-79
2021/07/04 00:20:09;;;;;;;25.33;16.00;;;;;;;16.09;100.00;97137.72;4997114;28;20029;-79
2021/07/04 00:22:35;;;;;;;33.80;15.73;;;;;;;16.03;100.00;97140.97;4980183;28;20113;-77
2021/07/04 00:25:00;;;;;;;26.63;15.52;;;;;;;15.99;100.00;97143.13;4980307;28;20160;-78
2021/07/04 00:27:26;;;;;;;28.15;16.40;;;;;;;15.97;100.00;97144.22;4980237;28;20030;-77
2021/07/04 00:29:51;;;;;;;21.92;16.15;;;;;;;15.95;100.00;97130.03;4981023;28;20026;-80
2021/07/04 00:32:17;;;;;;;30.90;15.73;;;;;;;15.95;100.00;97130.03;4997344;28;20551;-79
2021/07/04 00:34:42;;;;;;;23.58;15.13;;;;;;;15.90;100.00;97133.16;4996844;28;20129;-79
2021/07/04 00:37:09;;;;;;;27.77;16.02;;;;;;;15.94;100.00;97134.56;5014042;28;20030;-80
2021/07/04 00:39:34;;;;;;;23.63;14.77;;;;;;;15.93;100.00;97129.31;4995254;28;20022;-79
2021/07/04 00:42:00;;;;;;;29.42;15.80;;;;;;;15.97;100.00;97133.44;4996287;28;20037;-79
2021/07/04 00:44:25;;;;;;;20.55;15.10;;;;;;;16.01;100.00;97126.78;4996134;28;20029;-79
2021/07/04 00:46:51;;;;;;;21.95;13.90;;;;;;;16.03;100.00;97119.38;4996638;28;20064;-79
2021/07/04 00:49:17;;;;;;;18.90;13.35;;;;;;;16.11;100.00;97122.25;4980391;28;20055;-79
2021/07/04 00:51:42;;;;;;;19.83;14.25;;;;;;;16.14;100.00;97130.06;4996659;28;20116;-78
2021/07/04 00:54:08;;;;;;;25.35;13.75;;;;;;;16.13;100.00;97106.75;4995941;28;20117;-79
2021/07/04 00:56:33;;;;;;;23.52;14.35;;;;;;;16.28;100.00;97110.75;4996060;28;20144;-79
2021/07/04 00:58:59;;;;;;;19.40;13.88;;;;;;;16.34;100.00;97112.88;4996163;28;20032;-79
2021/07/04 01:01:25;;;;;;;23.80;14.02;;;;;;;16.40;100.00;97106.94;4979859;28;20033;-79
2021/07/04 01:03:50;;;;;;;27.10;16.60;;;;;;;16.46;100.00;97111.75;4995812;28;20081;-79
2021/07/04 01:06:16;;;;;;;27.30;17.27;;;;;;;16.53;100.00;97115.59;4979950;28;20115;-78
2021/07/04 01:08:41;;;;;;;24.30;17.98;;;;;;;16.53;100.00;97102.09;4979671;28;20037;-79
2021/07/04 01:11:07;;;;;;;31.70;19.90;;;;;;;16.49;100.00;97092.56;4979812;28;20034;-79
2021/07/04 01:13:33;;;;;;;28.45;18.42;;;;;;;16.49;100.00;97086.34;4995668;28;20466;-79
2021/07/04 01:15:58;;;;;;;27.45;18.88;;;;;;;16.45;100.00;97090.31;4979613;28;20128;-79
2021/07/04 01:18:25;;;;;;;27.98;18.92;;;;;;;16.38;100.00;97094.56;4979450;28;20029;-79
2021/07/04 01:20:52;;;;;;;29.15;19.55;;;;;;;16.39;100.00;97091.75;4995558;28;20080;-79
2021/07/04 01:23:17;;;;;;;31.30;19.23;;;;;;;16.46;100.00;97092.84;4979379;28;20033;-79
2021/07/04 01:25:49;;;;;;;30.02;18.50;;;;;;;16.45;100.00;97090.31;4979252;28;20041;-79
2021/07/04 01:28:18;;;;;;;41.72;19.10;;;;;;;16.41;100.00;97088.88;4995746;28;20026;-80
2021/07/04 01:30:59;;;;;;;24.95;16.73;;;;;;;16.48;100.00;97096.28;4979262;28;20102;-80
2021/07/04 01:33:35;;;;;;;25.90;17.00;;;;;;;16.37;100.00;97082.06;4979874;28;20030;-79
2021/07/04 01:36:06;;;;;;;29.80;16.77;;;;;;;16.46;100.00;97094.69;4988912;28;20026;-79
2021/07/04 01:38:32;;;;;;;24.15;16.30;;;;;;;16.33;100.00;97077.97;4979443;28;20021;-80
2021/07/04 01:40:58;;;;;;;28.35;16.42;;;;;;;16.45;100.00;97082.22;4994982;28;20473;-80
2021/07/04 01:43:23;;;;;;;23.13;16.92;;;;;;;16.45;100.00;97079.53;4995342;28;20021;-79
2021/07/04 01:45:49;;;;;;;25.13;17.02;;;;;;;16.42;100.00;97082.50;4978745;28;20060;-79
2021/07/04 01:48:15;;;;;;;22.85;16.70;;;;;;;16.40;100.00;97076.38;4995261;28;20405;-80
2021/07/04 01:50:44;;;;;;;30.17;18.10;;;;;;;16.41;100.00;97083.50;4978366;28;20103;-79
2021/07/04 01:53:09;;;;;;;26.73;17.33;;;;;;;16.45;100.00;97069.56;4994955;28;20037;-79
2021/07/04 01:55:35;;;;;;;26.25;17.80;;;;;;;16.49;100.00;97084.47;5012456;28;20025;-80
2021/07/04 01:58:01;;;;;;;28.52;17.63;;;;;;;16.48;100.00;97071.13;4994716;28;20026;-80
2021/07/04 02:00:29;;;;;;;26.33;18.95;;;;;;;16.50;100.00;97074.53;4979463;28;20499;-79
2021/07/04 02:02:57;;;;;;;35.28;19.67;;;;;;;16.49;100.00;97075.56;4995227;28;20029;-80
2021/07/04 02:05:23;;;;;;;27.85;18.33;;;;;;;16.40;100.00;97061.03;4978710;28;20037;-80
2021/07/04 02:07:50;;;;;;;25.88;17.60;;;;;;;16.35;100.00;97059.75;4978419;28;20029;-79
2021/07/04 02:10:20;;;;;;;34.55;19.13;;;;;;;16.39;100.00;97085.50;4994968;28;20083;-80
2021/07/04 02:12:46;;;;;;;29.60;18.13;;;;;;;16.37;100.00;97087.47;4978473;28;20029;-79
2021/07/04 02:15:14;;;;;;;28.45;17.55;;;;;;;16.34;100.00;97094.00;4994654;28;20052;-81
2021/07/04 02:17:39;;;;;;;27.00;18.17;;;;;;;16.26;100.00;97092.03;4978355;28;20444;-80
2021/07/04 02:20:14;;;;;;;25.23;17.63;;;;;;;16.30;100.00;97092.59;4994390;28;20036;-80
2021/07/04 02:22:40;;;;;;;22.05;16.25;;;;;;;16.25;100.00;97097.53;5011926;28;20033;-80
2021/07/04 02:25:06;;;;;;;23.90;14.90;;;;;;;16.16;100.00;97101.94;4994438;28;20044;-79
2021/07/04 02:27:31;;;;;;;25.10;16.52;;;;;;;15.92;100.00;97106.03;4978663;28;20061;-79
2021/07/04 02:29:57;;;;;;;21.83;15.55;;;;;;;15.88;100.00;97093.78;4978376;28;20056;-79
2021/07/04 02:32:22;;;;;;;24.25;15.68;;;;;;;15.82;100.00;97102.44;4978434;28;20120;-79
2021/07/04 02:34:48;;;;;;;22.17;15.48;;;;;;;15.82;100.00;97118.63;4977952;28;20037;-79
2021/07/04 02:37:13;;;;;;;22.98;16.17;;;;;;;15.80;100.00;97109.81;4978672;28;20127;-79
2021/07/04 02:39:39;;;;;;;22.73;16.33;;;;;;;15.81;100.00;97098.06;4978073;28;20033;-79
2021/07/04 02:42:05;;;;;;;26.90;16.85;;;;;;;15.79;100.00;97102.72;4977840;28;20545;-80
2021/07/04 02:44:30;;;;;;;20.58;15.55;;;;;;;15.84;100.00;97104.03;4977791;28;20091;-80
2021/07/04 02:46:56;;;;;;;23.35;16.85;;;;;;;15.82;100.00;97097.03;4977854;28;20077;-79
2021/07/04 02:49:21;;;;;;;20.17;16.20;;;;;;;15.79;100.00;97100.03;4994585;28;20052;-79
2021/07/04 02:51:47;;;;;;;30.27;17.20;;;;;;;15.76;100.00;97103.84;4977878;28;20113;-79
2021/07/04 02:54:13;;;;;;;24.90;17.10;;;;;;;15.67;100.00;97105.53;4977770;28;20557;-79
2021/07/04 02:56:38;;;;;;;23.70;16.17;;;;;;;15.69;100.00;97103.53;5011542;28;20057;-79
2021/07/04 02:59:04;;;;;;;29.48;18.05;;;;;;;15.60;100.00;97122.38;4977414;28;20038;-79
2021/07/04 03:01:29;;;;;;;27.20;17.13;;;;;;;15.53;100.00;97110.47;4994043;28;20033;-79
2021/07/04 03:03:55;;;;;;;24.00;17.23;;;;;;;15.52;100.00;97119.53;4996455;28;20030;-79
2021/07/04 03:06:20;;;;;;;34.15;18.23;;;;;;;15.52;100.00;97128.47;4982082;28;20045;-80
2021/07/04 03:08:46;;;;;;;27.60;17.75;;;;;;;15.54;100.00;97115.69;4998222;28;20112;-79
2021/07/04 03:11:12;;;;;;;24.95;16.95;;;;;;;15.54;100.00;97126.47;4981282;28;20033;-79
2021/07/04 03:13:37;;;;;;;26.38;17.55;;;;;;;15.59;100.00;97126.94;4981706;28;20018;-79
2021/07/04 03:16:03;;;;;;;24.20;17.10;;;;;;;15.58;100.00;97121.69;4994252;28;20054;-79
2021/07/04 03:18:28;;;;;;;34.53;17.40;;;;;;;15.57;100.00;97123.50;4994725;28;20034;-79
2021/07/04 03:20:54;;;;;;;25.73;16.88;;;;;;;15.57;100.00;97117.25;4978115;28;20030;-79
2021/07/04 03:23:20;;;;;;;24.92;17.70;;;;;;;15.58;100.00;97130.63;4994326;28;20397;-80
2021/07/04 03:25:45;;;;;;;27.23;17.75;;;;;;;15.56;100.00;97119.13;4994480;28;20042;-80
2021/07/04 03:28:11;;;;;;;32.42;21.42;;;;;;;15.55;100.00;97125.50;4978032;28;20125;-80
2021/07/04 03:30:36;;;;;;;32.90;21.10;;;;;;;15.60;100.00;97146.66;4994376;28;20030;-79
2021/07/04 03:33:02;;;;;;;29.38;19.33;;;;;;;15.58;100.00;97133.31;4994091;28;20038;-80
2021/07/04 03:35:27;;;;;;;31.52;20.70;;;;;;;15.55;100.00;97133.59;4994101;28;20124;-79
2021/07/04 03:37:54;;;;;;;31.38;22.40;;;;;;;15.66;100.00;97144.25;4978595;28;20180;-79
2021/07/04 03:40:20;;;;;;;32.58;21.58;;;;;;;15.68;100.00;97139.59;4970242;28;20521;-79
2021/07/04 03:42:47;;;;;;;32.20;20.35;;;;;;;15.78;100.00;97146.88;4994150;28;20121;-79
2021/07/04 03:45:12;;;;;;;29.42;19.88;;;;;;;15.79;100.00;97140.47;4994031;28;20038;-80
2021/07/04 03:47:40;;;;;;;37.15;22.55;;;;;;;15.87;100.00;97137.97;4977741;28;20033;-80
2021/07/04 03:50:06;;;;;;;38.83;22.25;;;;;;;15.99;100.00;97147.66;4977613;28;20038;-79
2021/07/04 03:52:32;;;;;;;48.67;22.27;;;;;;;16.11;100.00;97151.94;4977608;28;20478;-80
2021/07/04 03:54:58;;;;;;;38.53;19.95;;;;;;;16.22;100.00;97154.50;4977497;28;20042;-79
2021/07/04 03:57:23;;;;;;;43.63;20.70;;;;;;;16.27;100.00;97157.66;4993632;28;20498;-79
2021/07/04 03:59:53;;;;;;;36.30;19.23;;;;;;;16.37;100.00;97155.81;4977588;28;20030;-80
2021/07/04 04:02:19;;;;;;;31.50;19.00;;;;;;;16.43;100.00;97166.03;4994035;28;20029;-80
2021/07/04 04:04:45;;;;;;;37.42;19.00;;;;;;;16.47;100.00;97159.38;4978420;28;20034;-79
2021/07/04 04:07:13;;;;;;;28.15;18.20;;;;;;;16.44;100.00;97148.84;4993503;28;20041;-80
2021/07/04 04:09:39;;;;;;;30.85;19.05;;;;;;;16.56;100.00;97155.84;4993603;28;20030;-79
2021/07/04 04:12:05;;;;;;;30.45;19.55;;;;;;;16.59;100.00;97144.78;4977036;28;20057;-80
2021/07/04 04:14:31;;;;;;;33.80;19.10;;;;;;;16.72;100.00;97156.16;4976866;28;20117;-80
2021/07/04 04:16:57;;;;;;;27.60;17.98;;;;;;;16.75;100.00;97147.75;4993518;28;20096;-80
2021/07/04 04:19:23;;;;;;;28.60;18.83;;;;;;;16.85;100.00;97157.72;4993123;28;20030;-80
2021/07/04 04:21:48;;;;;;;32.20;18.42;;;;;;;16.85;100.00;97155.88;4977103;28;20038;-79
2021/07/04 04:24:14;;;;;;;38.00;18.85;;;;;;;16.95;100.00;97164.78;4993079;28;20057;-79
2021/07/04 04:26:40;;;;;;;26.40;17.98;;;;;;;17.06;100.00;97169.19;4977242;28;20092;-80
2021/07/04 04:29:05;;;;;;;35.95;20.42;;;;;;;17.29;100.00;97157.06;4977036;28;20109;-79
2021/07/04 04:31:31;;;;;;;29.13;21.45;;;;;;;17.39;100.00;97162.44;4993167;28;20030;-80
2021/07/04 04:33:57;;;;;;;28.90;20.33;;;;;;;17.38;100.00;97161.59;4976879;28;20115;-80
2021/07/04 04:36:22;;;;;;;30.77;20.67;;;;;;;17.63;100.00;97177.19;4976856;28;20451;-79
2021/07/04 04:38:48;;;;;;;40.03;21.60;;;;;;;17.85;100.00;97165.16;4976827;28;20038;-80
2021/07/04 04:41:13;;;;;;;33.08;19.75;;;;;;;17.96;100.00;97164.13;4992726;28;20030;-78
2021/07/04 04:43:40;;;;;;;32.78;20.13;;;;;;;18.22;99.81;97162.41;4976585;28;20041;-80
2021/07/04 04:46:06;;;;;;;26.08;19.33;;;;;;;18.33;98.55;97164.91;4976643;28;20042;-80
2021/07/04 04:48:31;;;;;;;28.88;20.38;;;;;;;18.30;98.68;97165.22;4973380;28;20035;-79
2021/07/04 04:50:57;;;;;;;33.13;20.00;;;;;;;18.27;98.28;97162.81;4976688;28;20041;-81
2021/07/04 04:53:23;;;;;;;34.28;22.45;;;;;;;18.55;95.96;97161.78;4975483;28;20169;-78
2021/07/04 04:55:48;;;;;;;32.55;21.08;;;;;;;20.21;84.08;97173.34;4976491;28;20037;-80
2021/07/04 04:58:14;;;;;;;24.35;17.17;;;;;;;21.58;76.93;97165.41;4993462;28;20036;-80
2021/07/04 05:00:39;;;;;;;26.80;16.73;;;;;;;22.44;72.56;97178.28;4993533;28;20034;-80
2021/07/04 05:03:06;;;;;;;32.47;17.38;;;;;;;22.72;69.38;97181.41;4977023;28;20093;-81
2021/07/04 05:05:32;;;;;;;29.40;18.95;;;;;;;23.14;67.78;97176.31;4993382;28;20467;-80
2021/07/04 05:07:58;;;;;;;24.48;15.93;;;;;;;24.11;62.76;97186.41;4976545;28;20113;-80
2021/07/04 05:10:23;;;;;;;21.98;14.98;;;;;;;25.16;57.91;97182.28;4992765;28;20069;-80
2021/07/04 05:12:49;;;;;;;22.95;14.25;;;;;;;25.79;54.12;97189.63;4992538;28;20034;-81
2021/07/04 05:15:14;;;;;;;20.27;13.73;;;;;;;27.35;50.74;97183.25;4975620;28;20046;-81
2021/07/04 05:17:40;;;;;;;24.10;14.20;;;;;;;28.42;47.46;97186.66;4992489;28;20034;-83
2021/07/04 05:20:08;;;;;;;27.48;18.38;;;;;;;29.55;44.91;97202.50;4992675;28;20030;-84
2021/07/04 05:22:34;;;;;;;23.88;13.68;;;;;;;30.71;42.53;97204.66;4976496;28;20486;-84
2021/07/04 05:25:01;;;;;;;19.63;12.07;;;;;;;30.95;40.36;97195.44;4976096;28;20038;-84
2021/07/04 05:27:26;;;;;;;22.80;12.25;;;;;;;31.13;40.48;97200.97;4975989;28;20501;-83
2021/07/04 05:29:52;;;;;;;19.02;11.93;;;;;;;30.58;40.47;97211.16;4976366;28;20038;-85
2021/07/04 05:32:17;;;;;;;22.20;12.20;;;;;;;31.50;39.58;97199.81;4992548;28;20034;-83
2021/07/04 05:34:43;;;;;;;14.07;11.05;;;;;;;31.18;39.58;97195.59;4992665;28;20051;-83
2021/07/04 05:37:09;;;;;;;14.88;10.77;;;;;;;32.20;37.21;97194.47;4976344;28;20066;-85
2021/07/04 05:39:35;;;;;;;16.35;10.95;;;;;;;32.71;36.73;97194.59;4975911;28;20478;-83
2021/07/04 05:42:00;;;;;;;14.73;10.68;;;;;;;33.05;36.15;97197.50;4976311;28;20060;-83
2021/07/04 05:44:26;;;;;;;16.48;10.57;;;;;;;33.81;35.05;97197.09;4976080;28;20045;-84
2021/07/04 05:46:52;;;;;;;14.07;10.85;;;;;;;33.77;34.41;97187.63;4976082;28;20038;-84
2021/07/04 05:49:18;;;;;;;14.95;10.60;;;;;;;32.99;34.94;97187.41;4975822;28;20041;-84
2021/07/04 05:51:44;;;;;;;16.80;11.10;;;;;;;32.99;35.51;97190.19;4975933;28;20026;-84
2021/07/04 05:54:10;;;;;;;21.25;12.57;;;;;;;33.39;35.62;97202.13;4975525;28;20037;-83
2021/07/04 05:56:36;;;;;;;14.80;11.30;;;;;;;33.89;35.40;97204.19;4975432;28;20026;-84
2021/07/04 05:59:02;;;;;;;21.90;12.30;;;;;;;34.10;35.11;97204.31;4992042;28;20027;-84
2021/07/04 06:01:28;;;;;;;22.13;11.88;;;;;;;34.38;34.28;97208.09;4975465;28;20399;-83
2021/07/04 06:03:53;;;;;;;19.60;11.45;;;;;;;34.68;34.35;97226.09;4975515;28;20064;-84
2021/07/04 06:06:19;;;;;;;13.55;10.75;;;;;;;35.51;32.50;97202.72;4972911;28;20057;-83
2021/07/04 06:08:44;;;;;;;11.50;9.63;;;;;;;36.19;30.96;97195.66;4972317;28;20093;-84
2021/07/04 06:11:10;;;;;;;12.90;9.90;;;;;;;35.89;31.98;97193.41;4975472;28;20553;-85
2021/07/04 06:13:35;;;;;;;15.27;9.68;;;;;;;35.77;32.16;97199.16;4991508;28;20093;-84
2021/07/04 06:16:01;;;;;;;11.73;8.95;;;;;;;36.00;31.48;97191.53;4975367;28;20418;-84
2021/07/04 06:18:28;;;;;;;11.38;9.38;;;;;;;36.61;29.78;97192.94;4975412;28;20068;-83
2021/07/04 06:20:54;;;;;;;13.85;9.30;;;;;;;36.32;30.15;97192.41;4975755;28;20041;-86
2021/07/04 06:23:20;;;;;;;15.05;9.48;;;;;;;36.15;31.04;97183.34;4975114;28;20034;-84
2021/07/04 06:25:46;;;;;;;11.35;8.75;;;;;;;36.69;30.33;97196.06;4975099;28;20041;-84
2021/07/04 06:28:12;;;;;;;12.63;8.60;;;;;;;37.15;29.36;97186.00;4991296;28;20096;-84
2021/07/04 06:30:37;;;;;;;11.43;7.18;;;;;;;37.92;28.57;97179.56;4975098;28;20486;-84
2021/07/04 06:33:03;;;;;;;14.23;7.50;;;;;;;36.91;29.15;97171.63;4975267;28;20030;-85
2021/07/04 06:35:29;;;;;;;15.63;8.05;;;;;;;37.06;29.69;97189.56;4974897;28;20034;-84
2021/07/04 06:37:54;;;;;;;8.60;7.05;;;;;;;36.60;29.89;97178.16;4974164;28;20037;-85
2021/07/04 06:40:20;;;;;;;11.77;6.50;;;;;;;36.92;30.52;97181.66;4974798;28;20497;-84
2021/07/04 06:42:45;;;;;;;9.48;6.50;;;;;;;37.56;29.17;97175.00;4974571;28;20034;-84
2021/07/04 06:45:12;;;;;;;7.47;6.78;;;;;;;38.45;28.27;97179.03;4974414;28;20070;-84
2021/07/04 06:47:42;;;;;;;29.40;13.57;;;;;;;39.27;26.46;97185.25;4990795;28;20072;-84
2021/07/04 06:50:09;;;;;;;9.90;6.75;;;;;;;35.95;29.10;97170.06;4974686;28;20084;-84
2021/07/04 06:52:35;;;;;;;11.05;7.00;;;;;;;36.38;30.67;97178.25;4974608;28;20038;-84
2021/07/04 06:55:00;;;;;;;8.45;6.10;;;;;;;35.99;29.49;97160.09;4990651;28;20068;-85
2021/07/04 06:57:27;;;;;;;7.25;5.90;;;;;;;36.59;29.60;97156.94;4974238;28;20116;-83
2021/07/04 06:59:57;;;;;;;7.20;5.10;;;;;;;36.83;28.45;97162.91;4974668;28;20497;-83
2021/07/04 07:02:23;;;;;;;28.90;7.18;;;;;;;37.31;28.15;97167.34;4974564;28;20041;-82
2021/07/04 07:04:49;;;;;;;8.45;5.63;;;;;;;38.60;25.87;97146.53;4990454;28;20028;-84
2021/07/04 07:07:15;;;;;;;13.38;6.55;;;;;;;39.01;26.75;97140.53;4974501;28;20030;-84
2021/07/04 07:09:40;;;;;;;17.67;6.47;;;;;;;38.76;25.94;97148.19;4990513;28;20046;-83
2021/07/04 07:12:06;;;;;;;9.55;5.88;;;;;;;37.95;26.58;97151.91;4974174;28;20041;-83
2021/07/04 07:14:32;;;;;;;10.70;5.70;;;;;;;37.74;26.68;97143.75;4974091;28;20165;-84
2021/07/04 07:16:57;;;;;;;7.22;4.50;;;;;;;37.93;25.07;97128.97;4974317;28;20096;-83
2021/07/04 07:19:23;;;;;;;6.10;4.13;;;;;;;37.28;25.63;97117.66;4974388;28;20116;-85
2021/07/04 07:21:49;;;;;;;6.53;4.00;;;;;;;38.43;24.84;97124.47;4990577;28;20109;-83
2021/07/04 07:24:14;;;;;;;4.70;4.22;;;;;;;38.63;24.15;97135.63;4974191;28;20458;-83
2021/07/04 07:26:40;;;;;;;5.75;4.10;;;;;;;38.57;23.44;97121.94;4974348;28;20061;-82
2021/07/04 07:29:05;;;;;;;6.50;4.13;;;;;;;38.35;24.46;97125.91;4974288;28;20045;-84
2021/07/04 07:31:31;;;;;;;4.10;3.70;;;;;;;38.96;23.59;97117.34;4990436;28;20072;-83
2021/07/04 07:33:57;;;;;;;6.93;4.28;;;;;;;40.03;22.51;97105.22;4974281;28;20026;-85
2021/07/04 07:36:24;;;;;;;4.60;3.70;;;;;;;41.07;22.55;97123.22;4974438;28;20466;-85
2021/07/04 07:38:50;;;;;;;8.45;3.90;;;;;;;40.87;23.32;97115.06;4974285;28;20161;-85
2021/07/04 07:41:15;;;;;;;13.52;4.53;;;;;;;40.14;23.09;97111.59;4990478;28;20077;-85
2021/07/04 07:43:43;;;;;;;5.38;3.88;;;;;;;40.88;22.37;97122.34;4973972;28;20570;-85
2021/07/04 07:46:09;;;;;;;12.02;7.40;;;;;;;40.96;22.46;97112.44;4974686;28;20410;-84
2021/07/04 07:48:35;;;;;;;8.55;4.88;;;;;;;40.96;22.42;97113.28;4974113;28;20022;-84
2021/07/04 07:51:00;;;;;;;10.88;7.35;;;;;;;41.25;21.99;97115.16;4993871;28;20037;-82
2021/07/04 07:53:26;;;;;;;5.22;4.00;;;;;;;41.06;22.09;97113.16;4977565;28;20026;-84
2021/07/04 07:55:52;;;;;;;7.55;3.90;;;;;;;40.94;22.51;97111.91;4977269;28;20037;-83
2021/07/04 07:58:18;;;;;;;4.57;3.42;;;;;;;40.83;22.02;97108.34;4977321;28;20068;-84
2021/07/04 08:00:43;;;;;;;4.90;4.38;;;;;;;39.24;24.47;97113.03;4977641;28;20030;-84
2021/07/04 08:03:13;;;;;;;9.05;4.30;;;;;;;37.31;25.21;97103.16;4993807;28;20033;-84
2021/07/04 08:05:38;;;;;;;10.80;4.15;;;;;;;35.46;28.40;97121.97;4977676;28;20041;-84
2021/07/04 08:08:04;;;;;;;11.02;4.70;;;;;;;33.98;30.98;97122.16;4977811;28;20030;-83
2021/07/04 08:10:30;;;;;;;4.30;3.90;;;;;;;34.46;30.50;97127.06;4977731;28;20449;-84
2021/07/04 08:12:57;;;;;;;11.57;4.10;;;;;;;34.76;30.41;97125.56;4977337;28;20042;-84
2021/07/04 08:15:23;;;;;;;8.35;4.68;;;;;;;36.54;27.72;97117.91;4978737;28;20046;-85
2021/07/04 08:17:49;;;;;;;12.13;4.43;;;;;;;37.23;26.45;97117.63;4977671;28;20042;-83
2021/07/04 08:20:15;;;;;;;6.30;3.75;;;;;;;38.05;24.13;97105.50;4994000;28;20026;-84
2021/07/04 08:22:41;;;;;;;13.38;4.22;;;;;;;39.76;24.46;97104.03;4993313;28;20533;-84
2021/07/04 08:25:07;;;;;;;8.85;3.83;;;;;;;41.29;22.94;97104.97;4976857;28;20026;-85
2021/07/04 08:27:33;;;;;;;9.57;4.22;;;;;;;41.44;22.90;97107.63;4977005;28;20034;-85
2021/07/04 08:29:58;;;;;;;6.93;4.20;;;;;;;41.81;22.05;97102.00;4976835;28;20045;-85
2021/07/04 08:32:24;;;;;;;4.45;4.00;;;;;;;40.83;21.84;97101.91;4976857;28;20391;-84
2021/07/04 08:34:49;;;;;;;7.15;3.80;;;;;;;41.01;22.30;97096.38;4993096;28;20383;-85
2021/07/04 08:37:15;;;;;;;6.25;4.07;;;;;;;40.50;22.32;97078.41;4993193;28;20113;-84
2021/07/04 08:39:41;;;;;;;4.28;3.53;;;;;;;39.78;22.36;97074.59;4976426;28;20026;-83
2021/07/04 08:42:06;;;;;;;5.63;3.50;;;;;;;40.48;22.66;97080.69;4992918;28;20042;-84
2021/07/04 08:44:32;;;;;;;7.30;3.88;;;;;;;40.55;22.69;97086.78;4976835;28;20032;-83
2021/07/04 08:46:59;;;;;;;4.00;3.60;;;;;;;40.28;22.00;97078.09;4977072;28;20034;-83
2021/07/04 08:49:25;;;;;;;9.15;4.03;;;;;;;37.54;25.27;97074.75;4994111;28;20022;-84
2021/07/04 08:51:50;;;;;;;6.93;4.85;;;;;;;35.71;27.78;97074.91;4992608;28;20030;-84
2021/07/04 08:54:16;;;;;;;7.30;4.07;;;;;;;33.83;30.29;97083.06;4992647;28;20022;-84
2021/07/04 08:56:45;;;;;;;8.65;4.40;;;;;;;34.27;29.86;97096.81;4976516;28;20113;-85
2021/07/04 08:59:11;;;;;;;12.93;8.32;;;;;;;34.65;30.04;97087.63;4976688;28;20037;-83
2021/07/04 09:01:45;;;;;;;13.48;4.63;;;;;;;34.12;31.80;97088.25;4977159;28;20026;-83
2021/07/04 09:04:14;;;;;;;12.32;4.80;;;;;;;33.36;33.15;97094.44;4979290;28;20026;-83
2021/07/04 09:06:53;;;;;;;9.30;4.07;;;;;;;34.60;28.26;97079.25;4992634;28;20426;-83
2021/07/04 09:09:24;;;;;;;5.00;3.88;;;;;;;36.75;24.71;97063.91;4976484;28;20030;-84
2021/07/04 09:12:07;;;;;;;9.48;4.55;;;;;;;38.99;23.75;97058.00;4976084;28;20121;-83
2021/07/04 09:14:39;;;;;;;7.53;4.97;;;;;;;40.11;22.66;97055.28;4975968;28;20121;-84
2021/07/04 09:17:07;;;;;;;6.75;4.70;;;;;;;40.38;21.71;97038.72;4992314;28;20054;-84
2021/07/04 09:19:33;;;;;;;16.52;5.05;;;;;;;41.10;21.61;97046.81;4975901;28;20031;-85
2021/07/04 09:22:09;;;;;;;8.52;4.22;;;;;;;41.63;21.84;97055.03;4992087;28;20457;-84
2021/07/04 09:24:37;;;;;;;4.05;3.45;;;;;;;42.16;19.29;97030.25;4975981;28;20022;-85
2021/07/04 09:27:05;;;;;;;7.80;3.65;;;;;;;42.91;20.93;97036.38;4992023;28;20030;-85
2021/07/04 09:29:59;;;;;;;7.97;3.90;;;;;;;44.15;18.81;97030.06;4975978;28;20022;-85
2021/07/04 09:32:27;;;;;;;3.30;2.97;;;;;;;43.88;17.67;97021.72;4959354;28;20387;-86
2021/07/04 09:35:10;;;;;;;7.95;3.50;;;;;;;44.60;18.30;97027.16;4975454;28;20030;-85
2021/07/04 09:37:37;;;;;;;6.13;4.13;;;;;;;43.61;17.90;97016.19;4975740;28;20026;-85
2021/07/04 09:40:12;;;;;;;7.32;3.53;;;;;;;42.85;18.38;97015.13;4991573;28;20037;-85
2021/07/04 09:43:06;;;;;;;5.68;3.92;;;;;;;41.28;20.09;97025.53;4975490;28;20034;-86
2021/07/04 09:45:50;;;;;;;5.68;3.15;;;;;;;42.15;19.48;97031.38;4985847;28;20026;-86
2021/07/04 09:48:23;;;;;;;5.47;3.50;;;;;;;40.85;20.22;97016.28;4991666;28;20109;-83
2021/07/04 09:50:53;;;;;;;7.20;3.92;;;;;;;38.82;23.14;97027.63;4975184;28;20045;-85
2021/07/04 09:53:20;;;;;;;16.38;5.05;;;;;;;37.75;24.87;97028.94;4975291;28;20064;-85
2021/07/04 09:55:50;;;;;;;9.48;3.67;;;;;;;36.74;26.52;97031.53;4991521;28;20379;-85
2021/07/04 09:58:17;;;;;;;6.40;3.47;;;;;;;35.96;27.57;97032.50;4975751;28;20030;-85
2021/07/04 10:00:44;;;;;;;8.00;4.07;;;;;;;36.07;27.40;97030.63;4991320;28;20344;-85
2021/07/04 10:03:19;;;;;;;7.70;3.88;;;;;;;37.96;24.84;97033.41;4974929;28;20042;-85
2021/07/04 10:05:54;;;;;;;9.68;4.47;;;;;;;40.38;24.60;97038.72;4974905;28;20057;-83
2021/07/04 10:08:24;;;;;;;14.82;6.22;;;;;;;40.87;22.81;97018.78;4983493;28;20081;-84
2021/07/04 10:10:53;;;;;;;8.82;5.35;;;;;;;41.03;21.46;97015.50;4991589;28;20026;-84
2021/07/04 10:13:19;;;;;;;6.10;3.75;;;;;;;40.12;22.57;96995.28;4990808;28;20464;-84
2021/07/04 10:15:44;;;;;;;10.63;5.00;;;;;;;39.92;23.59;97008.34;4974779;28;20057;-85
2021/07/04 10:18:11;;;;;;;25.00;10.30;;;;;;;39.41;21.72;96991.13;4991541;28;20030;-84
2021/07/04 10:20:38;;;;;;;13.52;5.78;;;;;;;38.31;24.13;97009.28;4991059;28;20092;-84
2021/07/04 10:23:08;;;;;;;23.20;8.27;;;;;;;36.78;24.79;97001.16;4990718;28;20564;-84
2021/07/04 10:25:34;;;;;;;7.47;4.40;;;;;;;35.54;27.67;96987.88;4991091;28;20057;-84
2021/07/04 10:28:01;;;;;;;10.95;5.38;;;;;;;36.87;25.01;97000.34;4974509;28;20069;-84
2021/07/04 10:30:27;;;;;;;4.72;3.60;;;;;;;38.85;23.51;96999.06;4974674;28;20129;-84
2021/07/04 10:33:16;;;;;;;16.88;5.65;;;;;;;39.04;22.80;96988.84;4974768;28;20073;-84
2021/07/04 10:36:00;;;;;;;9.75;4.13;;;;;;;37.93;24.45;96992.06;4974713;28;20503;-84
2021/07/04 10:38:26;;;;;;;3.92;3.20;;;;;;;37.21;24.99;96981.19;4967023;28;20026;-84
2021/07/04 10:41:08;;;;;;;3.65;3.08;;;;;;;35.48;26.72;96979.75;4974550;28;20410;-84
2021/07/04 10:43:53;;;;;;;7.50;3.50;;;;;;;34.55;28.66;96981.03;4974662;28;20406;-84
2021/07/04 10:46:45;;;;;;;4.22;3.47;;;;;;;33.62;31.18;96996.72;4990789;28;20524;-84
2021/07/04 10:49:19;;;;;;;17.17;12.77;;;;;;;32.71;30.41;96997.84;4990465;28;20037;-83
2021/07/04 10:52:10;;;;;;;5.55;4.13;;;;;;;31.92;30.73;96987.56;4974569;28;20036;-83
2021/07/04 10:54:38;;;;;;;9.57;3.42;;;;;;;31.59;33.06;96996.47;4984109;28;20029;-85
2021/07/04 10:57:30;;;;;;;7.20;4.30;;;;;;;31.23;33.96;96993.91;4990384;28;20137;-85
2021/07/04 10:59:58;;;;;;;4.78;3.50;;;;;;;30.66;34.62;96991.84;4977884;28;20039;-84
2021/07/04 11:02:59;;;;;;;7.65;3.38;;;;;;;30.32;34.81;96994.19;4990683;28;20069;-84
2021/07/04 11:05:40;;;;;;;6.68;3.17;;;;;;;31.15;31.74;96991.50;4975198;28;20018;-85
2021/07/04 11:08:13;;;;;;;8.55;3.40;;;;;;;32.07;30.92;96976.00;4990346;28;20033;-85
2021/07/04 11:10:54;;;;;;;3.20;2.80;;;;;;;33.16;28.42;96972.88;4974378;28;20030;-85
2021/07/04 11:13:25;;;;;;;14.98;3.15;;;;;;;34.81;27.78;96958.84;4990341;28;20045;-83
2021/07/04 11:16:04;;;;;;;8.63;6.05;;;;;;;37.40;26.06;96981.47;4974523;28;20050;-83
2021/07/04 11:18:38;;;;;;;3.90;3.50;;;;;;;39.87;23.98;96963.53;4967003;28;20113;-83
2021/07/04 11:21:04;;;;;;;5.22;3.30;;;;;;;41.59;21.52;96956.47;4990583;28;20036;-83